sensor_id;sensor_type;location;lat;lon;timestamp;P1;durP1;ratioP1;P2;durP2;ratioP2
76463;SDS011;65301;46.666;20.110;2024-03-23T00:54:00;35.15;;;19.20;;
76463;SDS011;65301;46.666;20.110;2024-03-23T00:57:01;33.93;;;21.07;;
76463;SDS011;65301;46.666;20.110;2024-03-23T01:00:01;31.77;;;19.38;;
76463;SDS011;65301;46.666;20.110;2024-03-23T01:03:03;34.60;;;19.23;;
76463;SDS011;65301;46.666;20.110;2024-03-23T01:06:04;36.03;;;19.33;;
76463;SDS011;65301;46.666;20.110;2024-03-23T01:09:05;37.10;;;20.70;;
76463;SDS011;65301;46.666;20.110;2024-03-23T01:12:06;32.15;;;19.10;;
76463;SDS011;65301;46.666;20.110;2024-03-23T01:15:07;35.13;;;19.90;;
76463;SDS011;65301;46.666;20.110;2024-03-23T01:18:08;37.17;;;20.42;;
76463;SDS011;65301;46.666;20.110;2024-03-23T01:21:09;34.78;;;20.48;;
76463;SDS011;65301;46.666;20.110;2024-03-23T01:24:10;37.57;;;20.23;;
76463;SDS011;65301;46.666;20.110;2024-03-23T01:27:11;37.03;;;20.52;;
76463;SDS011;65301;46.666;20.110;2024-03-23T01:30:12;33.72;;;20.80;;
76463;SDS011;65301;46.666;20.110;2024-03-23T01:33:14;34.23;;;20.37;;
76463;SDS011;65301;46.666;20.110;2024-03-23T01:36:15;35.97;;;20.17;;
76463;SDS011;65301;46.666;20.110;2024-03-23T01:39:16;34.85;;;20.40;;
76463;SDS011;65301;46.666;20.110;2024-03-23T01:42:17;37.00;;;20.53;;
76463;SDS011;65301;46.666;20.110;2024-03-23T01:45:18;38.45;;;21.10;;
76463;SDS011;65301;46.666;20.110;2024-03-23T01:48:19;33.43;;;19.40;;
76463;SDS011;65301;46.666;20.110;2024-03-23T01:51:21;36.10;;;20.73;;
76463;SDS011;65301;46.666;20.110;2024-03-23T01:54:22;36.83;;;21.30;;
76463;SDS011;65301;46.666;20.110;2024-03-23T01:57:24;38.03;;;21.20;;
76463;SDS011;65301;46.666;20.110;2024-03-23T02:00:25;39.07;;;20.70;;
76463;SDS011;65301;46.666;20.110;2024-03-23T02:03:28;37.03;;;20.75;;
76463;SDS011;65301;46.666;20.110;2024-03-23T02:06:29;37.25;;;20.10;;
76463;SDS011;65301;46.666;20.110;2024-03-23T02:09:29;38.20;;;20.43;;
76463;SDS011;65301;46.666;20.110;2024-03-23T02:12:31;38.10;;;21.17;;
76463;SDS011;65301;46.666;20.110;2024-03-23T02:15:32;37.38;;;21.77;;
76463;SDS011;65301;46.666;20.110;2024-03-23T02:18:34;33.80;;;20.17;;
76463;SDS011;65301;46.666;20.110;2024-03-23T02:21:35;37.03;;;21.20;;
76463;SDS011;65301;46.666;20.110;2024-03-23T02:24:36;35.58;;;19.73;;
76463;SDS011;65301;46.666;20.110;2024-03-23T02:27:37;35.13;;;21.33;;
76463;SDS011;65301;46.666;20.110;2024-03-23T02:30:39;38.63;;;21.42;;
76463;SDS011;65301;46.666;20.110;2024-03-23T02:33:40;40.17;;;21.50;;
76463;SDS011;65301;46.666;20.110;2024-03-23T02:36:41;39.50;;;20.43;;
76463;SDS011;65301;46.666;20.110;2024-03-23T02:39:42;35.38;;;20.58;;
76463;SDS011;65301;46.666;20.110;2024-03-23T02:42:43;39.60;;;20.93;;
76463;SDS011;65301;46.666;20.110;2024-03-23T02:45:43;37.45;;;20.80;;
76463;SDS011;65301;46.666;20.110;2024-03-23T02:48:44;37.17;;;20.13;;
76463;SDS011;65301;46.666;20.110;2024-03-23T02:51:45;35.07;;;20.60;;
76463;SDS011;65301;46.666;20.110;2024-03-23T02:54:48;36.45;;;21.15;;
76463;SDS011;65301;46.666;20.110;2024-03-23T02:57:49;33.65;;;20.23;;
76463;SDS011;65301;46.666;20.110;2024-03-23T03:00:50;35.40;;;20.33;;
76463;SDS011;65301;46.666;20.110;2024-03-23T03:03:51;38.05;;;20.27;;
76463;SDS011;65301;46.666;20.110;2024-03-23T03:06:51;35.33;;;20.43;;
76463;SDS011;65301;46.666;20.110;2024-03-23T03:09:52;38.95;;;20.70;;
76463;SDS011;65301;46.666;20.110;2024-03-23T03:12:53;40.27;;;20.83;;
76463;SDS011;65301;46.666;20.110;2024-03-23T03:15:54;41.92;;;21.33;;
76463;SDS011;65301;46.666;20.110;2024-03-23T03:18:55;39.67;;;22.10;;
76463;SDS011;65301;46.666;20.110;2024-03-23T03:21:56;37.28;;;21.27;;
76463;SDS011;65301;46.666;20.110;2024-03-23T03:24:57;38.92;;;21.73;;
76463;SDS011;65301;46.666;20.110;2024-03-23T03:27:57;39.03;;;21.47;;
76463;SDS011;65301;46.666;20.110;2024-03-23T03:30:59;38.33;;;20.15;;
76463;SDS011;65301;46.666;20.110;2024-03-23T03:34:00;39.25;;;22.23;;
76463;SDS011;65301;46.666;20.110;2024-03-23T03:37:01;38.90;;;21.97;;
76463;SDS011;65301;46.666;20.110;2024-03-23T03:40:02;35.83;;;20.95;;
76463;SDS011;65301;46.666;20.110;2024-03-23T03:43:03;42.57;;;23.43;;
76463;SDS011;65301;46.666;20.110;2024-03-23T03:46:04;38.88;;;21.45;;
76463;SDS011;65301;46.666;20.110;2024-03-23T03:49:08;39.00;;;22.20;;
76463;SDS011;65301;46.666;20.110;2024-03-23T03:52:09;40.67;;;21.50;;
76463;SDS011;65301;46.666;20.110;2024-03-23T03:55:14;40.17;;;22.43;;
76463;SDS011;65301;46.666;20.110;2024-03-23T03:58:15;38.67;;;20.65;;
76463;SDS011;65301;46.666;20.110;2024-03-23T04:01:16;36.27;;;20.63;;
76463;SDS011;65301;46.666;20.110;2024-03-23T04:04:17;37.03;;;21.25;;
76463;SDS011;65301;46.666;20.110;2024-03-23T04:07:17;41.93;;;21.77;;
76463;SDS011;65301;46.666;20.110;2024-03-23T04:10:18;38.88;;;21.77;;
76463;SDS011;65301;46.666;20.110;2024-03-23T04:13:19;37.40;;;20.70;;
76463;SDS011;65301;46.666;20.110;2024-03-23T04:16:31;35.10;;;20.33;;
76463;SDS011;65301;46.666;20.110;2024-03-23T04:19:35;40.88;;;21.20;;
76463;SDS011;65301;46.666;20.110;2024-03-23T04:22:35;35.42;;;19.00;;
76463;SDS011;65301;46.666;20.110;2024-03-23T04:25:36;33.40;;;19.20;;
76463;SDS011;65301;46.666;20.110;2024-03-23T04:28:37;35.38;;;19.90;;
76463;SDS011;65301;46.666;20.110;2024-03-23T04:31:38;31.47;;;18.93;;
76463;SDS011;65301;46.666;20.110;2024-03-23T04:34:38;34.40;;;20.20;;
76463;SDS011;65301;46.666;20.110;2024-03-23T04:37:39;35.73;;;20.13;;
76463;SDS011;65301;46.666;20.110;2024-03-23T04:40:43;35.33;;;20.58;;
76463;SDS011;65301;46.666;20.110;2024-03-23T04:43:45;35.50;;;20.20;;
76463;SDS011;65301;46.666;20.110;2024-03-23T04:46:45;33.83;;;19.73;;
76463;SDS011;65301;46.666;20.110;2024-03-23T04:49:46;35.97;;;19.95;;
76463;SDS011;65301;46.666;20.110;2024-03-23T04:52:47;37.97;;;20.35;;
76463;SDS011;65301;46.666;20.110;2024-03-23T04:55:48;35.07;;;20.17;;
76463;SDS011;65301;46.666;20.110;2024-03-23T04:58:48;34.50;;;18.95;;
76463;SDS011;65301;46.666;20.110;2024-03-23T05:01:49;34.57;;;19.93;;
76463;SDS011;65301;46.666;20.110;2024-03-23T05:04:50;32.83;;;19.30;;
76463;SDS011;65301;46.666;20.110;2024-03-23T05:07:51;32.53;;;18.93;;
76463;SDS011;65301;46.666;20.110;2024-03-23T05:10:51;37.45;;;19.55;;
76463;SDS011;65301;46.666;20.110;2024-03-23T05:13:52;36.70;;;19.40;;
76463;SDS011;65301;46.666;20.110;2024-03-23T05:16:53;31.67;;;18.83;;
76463;SDS011;65301;46.666;20.110;2024-03-23T05:19:54;33.87;;;18.33;;
76463;SDS011;65301;46.666;20.110;2024-03-23T05:22:55;34.33;;;18.50;;
76463;SDS011;65301;46.666;20.110;2024-03-23T05:25:56;31.73;;;18.17;;
76463;SDS011;65301;46.666;20.110;2024-03-23T05:28:56;31.63;;;18.87;;
76463;SDS011;65301;46.666;20.110;2024-03-23T05:31:57;31.27;;;18.05;;
76463;SDS011;65301;46.666;20.110;2024-03-23T05:34:58;33.93;;;18.57;;
76463;SDS011;65301;46.666;20.110;2024-03-23T05:37:59;32.40;;;18.15;;
76463;SDS011;65301;46.666;20.110;2024-03-23T05:41:00;30.60;;;18.73;;
76463;SDS011;65301;46.666;20.110;2024-03-23T05:44:01;31.83;;;18.20;;
76463;SDS011;65301;46.666;20.110;2024-03-23T05:47:01;34.47;;;18.65;;
76463;SDS011;65301;46.666;20.110;2024-03-23T05:50:02;31.37;;;18.33;;
76463;SDS011;65301;46.666;20.110;2024-03-23T05:53:04;32.35;;;19.27;;
76463;SDS011;65301;46.666;20.110;2024-03-23T05:56:05;34.28;;;19.92;;
76463;SDS011;65301;46.666;20.110;2024-03-23T05:59:07;31.00;;;18.98;;
76463;SDS011;65301;46.666;20.110;2024-03-23T06:02:08;32.83;;;19.70;;
76463;SDS011;65301;46.666;20.110;2024-03-23T06:05:11;32.42;;;19.42;;
76463;SDS011;65301;46.666;20.110;2024-03-23T06:08:12;31.75;;;19.80;;
76463;SDS011;65301;46.666;20.110;2024-03-23T06:11:13;33.95;;;19.80;;
76463;SDS011;65301;46.666;20.110;2024-03-23T06:14:14;32.83;;;20.17;;
76463;SDS011;65301;46.666;20.110;2024-03-23T06:17:15;29.55;;;19.60;;
76463;SDS011;65301;46.666;20.110;2024-03-23T06:20:16;32.63;;;19.37;;
76463;SDS011;65301;46.666;20.110;2024-03-23T06:23:17;32.53;;;19.73;;
76463;SDS011;65301;46.666;20.110;2024-03-23T06:26:20;31.13;;;19.95;;
76463;SDS011;65301;46.666;20.110;2024-03-23T06:29:21;31.10;;;18.45;;
76463;SDS011;65301;46.666;20.110;2024-03-23T06:32:22;28.47;;;17.57;;
76463;SDS011;65301;46.666;20.110;2024-03-23T06:35:23;25.88;;;17.50;;
76463;SDS011;65301;46.666;20.110;2024-03-23T06:38:24;27.73;;;18.57;;
76463;SDS011;65301;46.666;20.110;2024-03-23T06:41:24;27.50;;;18.15;;
76463;SDS011;65301;46.666;20.110;2024-03-23T06:44:26;31.00;;;17.77;;
76463;SDS011;65301;46.666;20.110;2024-03-23T06:47:27;28.33;;;18.50;;
76463;SDS011;65301;46.666;20.110;2024-03-23T06:50:27;27.35;;;18.70;;
76463;SDS011;65301;46.666;20.110;2024-03-23T06:53:28;28.87;;;18.67;;
76463;SDS011;65301;46.666;20.110;2024-03-23T06:56:30;28.45;;;18.42;;
76463;SDS011;65301;46.666;20.110;2024-03-23T06:59:30;30.75;;;19.17;;
76463;SDS011;65301;46.666;20.110;2024-03-23T07:02:31;30.37;;;18.40;;
76463;SDS011;65301;46.666;20.110;2024-03-23T07:05:32;28.77;;;18.55;;
76463;SDS011;65301;46.666;20.110;2024-03-23T07:08:33;34.03;;;19.47;;
76463;SDS011;65301;46.666;20.110;2024-03-23T07:11:34;28.73;;;18.75;;
76463;SDS011;65301;46.666;20.110;2024-03-23T07:14:35;30.95;;;18.63;;
76463;SDS011;65301;46.666;20.110;2024-03-23T07:17:35;26.77;;;17.53;;
76463;SDS011;65301;46.666;20.110;2024-03-23T07:20:36;25.35;;;17.15;;
76463;SDS011;65301;46.666;20.110;2024-03-23T07:23:37;26.20;;;17.53;;
76463;SDS011;65301;46.666;20.110;2024-03-23T07:26:38;29.80;;;18.98;;
76463;SDS011;65301;46.666;20.110;2024-03-23T07:29:39;28.03;;;16.93;;
76463;SDS011;65301;46.666;20.110;2024-03-23T07:32:39;26.10;;;16.47;;
76463;SDS011;65301;46.666;20.110;2024-03-23T07:35:40;23.88;;;15.70;;
76463;SDS011;65301;46.666;20.110;2024-03-23T07:38:41;24.60;;;15.57;;
76463;SDS011;65301;46.666;20.110;2024-03-23T07:41:45;24.48;;;15.90;;
76463;SDS011;65301;46.666;20.110;2024-03-23T07:44:46;24.55;;;16.17;;
76463;SDS011;65301;46.666;20.110;2024-03-23T07:47:48;21.77;;;15.17;;
76463;SDS011;65301;46.666;20.110;2024-03-23T07:51:07;21.95;;;15.25;;
76463;SDS011;65301;46.666;20.110;2024-03-23T07:54:10;22.27;;;14.23;;
76463;SDS011;65301;46.666;20.110;2024-03-23T07:57:11;21.67;;;14.57;;
76463;SDS011;65301;46.666;20.110;2024-03-23T08:00:12;27.63;;;13.63;;
76463;SDS011;65301;46.666;20.110;2024-03-23T08:03:15;20.23;;;13.50;;
76463;SDS011;65301;46.666;20.110;2024-03-23T08:06:16;20.88;;;13.18;;
76463;SDS011;65301;46.666;20.110;2024-03-23T08:09:20;20.00;;;12.47;;
76463;SDS011;65301;46.666;20.110;2024-03-23T08:12:21;19.52;;;13.27;;
76463;SDS011;65301;46.666;20.110;2024-03-23T08:15:22;17.77;;;12.40;;
76463;SDS011;65301;46.666;20.110;2024-03-23T08:18:22;19.87;;;12.67;;
76463;SDS011;65301;46.666;20.110;2024-03-23T08:21:23;17.30;;;12.65;;
76463;SDS011;65301;46.666;20.110;2024-03-23T08:24:26;16.70;;;11.90;;
76463;SDS011;65301;46.666;20.110;2024-03-23T08:27:27;17.63;;;11.97;;
76463;SDS011;65301;46.666;20.110;2024-03-23T08:30:27;18.63;;;11.45;;
76463;SDS011;65301;46.666;20.110;2024-03-23T08:33:28;17.33;;;10.93;;
76463;SDS011;65301;46.666;20.110;2024-03-23T08:36:30;19.98;;;11.10;;
76463;SDS011;65301;46.666;20.110;2024-03-23T08:39:31;17.30;;;11.50;;
76463;SDS011;65301;46.666;20.110;2024-03-23T08:42:32;17.23;;;10.97;;
76463;SDS011;65301;46.666;20.110;2024-03-23T08:45:32;21.08;;;10.77;;
76463;SDS011;65301;46.666;20.110;2024-03-23T08:48:34;17.70;;;10.98;;
76463;SDS011;65301;46.666;20.110;2024-03-23T08:51:36;14.50;;;10.13;;
76463;SDS011;65301;46.666;20.110;2024-03-23T08:54:37;14.60;;;9.98;;
76463;SDS011;65301;46.666;20.110;2024-03-23T08:57:37;15.23;;;10.23;;
76463;SDS011;65301;46.666;20.110;2024-03-23T09:00:38;17.97;;;10.70;;
76463;SDS011;65301;46.666;20.110;2024-03-23T09:03:39;16.70;;;10.77;;
76463;SDS011;65301;46.666;20.110;2024-03-23T09:06:42;16.47;;;10.50;;
76463;SDS011;65301;46.666;20.110;2024-03-23T09:09:43;15.70;;;10.05;;
76463;SDS011;65301;46.666;20.110;2024-03-23T09:12:44;17.60;;;10.05;;
76463;SDS011;65301;46.666;20.110;2024-03-23T09:15:48;16.90;;;10.10;;
76463;SDS011;65301;46.666;20.110;2024-03-23T09:18:56;14.18;;;10.20;;
76463;SDS011;65301;46.666;20.110;2024-03-23T09:21:57;17.42;;;8.77;;
76463;SDS011;65301;46.666;20.110;2024-03-23T09:24:58;12.03;;;9.40;;
76463;SDS011;65301;46.666;20.110;2024-03-23T09:27:59;17.67;;;9.48;;
76463;SDS011;65301;46.666;20.110;2024-03-23T09:31:03;14.63;;;9.27;;
76463;SDS011;65301;46.666;20.110;2024-03-23T09:34:04;14.68;;;10.23;;
76463;SDS011;65301;46.666;20.110;2024-03-23T09:37:05;15.23;;;9.15;;
76463;SDS011;65301;46.666;20.110;2024-03-23T09:40:14;15.93;;;8.87;;
76463;SDS011;65301;46.666;20.110;2024-03-23T09:43:16;14.50;;;8.82;;
76463;SDS011;65301;46.666;20.110;2024-03-23T09:46:16;11.82;;;8.07;;
76463;SDS011;65301;46.666;20.110;2024-03-23T09:49:17;10.93;;;8.30;;
76463;SDS011;65301;46.666;20.110;2024-03-23T09:52:18;11.02;;;7.93;;
76463;SDS011;65301;46.666;20.110;2024-03-23T09:55:19;11.20;;;8.02;;
76463;SDS011;65301;46.666;20.110;2024-03-23T09:58:20;13.33;;;7.90;;
76463;SDS011;65301;46.666;20.110;2024-03-23T10:01:23;13.95;;;9.02;;
76463;SDS011;65301;46.666;20.110;2024-03-23T10:04:40;13.20;;;8.60;;
76463;SDS011;65301;46.666;20.110;2024-03-23T10:07:42;11.20;;;7.33;;
76463;SDS011;65301;46.666;20.110;2024-03-23T10:10:44;10.47;;;7.60;;
76463;SDS011;65301;46.666;20.110;2024-03-23T10:13:46;13.93;;;7.10;;
76463;SDS011;65301;46.666;20.110;2024-03-23T10:16:47;8.88;;;7.03;;
76463;SDS011;65301;46.666;20.110;2024-03-23T10:19:48;9.23;;;6.70;;
76463;SDS011;65301;46.666;20.110;2024-03-23T10:22:51;15.23;;;7.20;;
76463;SDS011;65301;46.666;20.110;2024-03-23T10:25:52;11.48;;;7.85;;
76463;SDS011;65301;46.666;20.110;2024-03-23T10:29:00;10.17;;;7.43;;
76463;SDS011;65301;46.666;20.110;2024-03-23T10:32:11;13.80;;;7.80;;
76463;SDS011;65301;46.666;20.110;2024-03-23T10:35:19;11.50;;;7.75;;
76463;SDS011;65301;46.666;20.110;2024-03-23T10:38:24;11.45;;;7.25;;
76463;SDS011;65301;46.666;20.110;2024-03-23T10:41:27;13.10;;;7.65;;
76463;SDS011;65301;46.666;20.110;2024-03-23T10:44:29;10.77;;;7.27;;
76463;SDS011;65301;46.666;20.110;2024-03-23T10:47:31;14.07;;;7.93;;
76463;SDS011;65301;46.666;20.110;2024-03-23T10:50:32;10.75;;;7.78;;
76463;SDS011;65301;46.666;20.110;2024-03-23T10:53:34;10.32;;;7.63;;
76463;SDS011;65301;46.666;20.110;2024-03-23T10:56:35;10.77;;;7.68;;
76463;SDS011;65301;46.666;20.110;2024-03-23T10:59:40;11.43;;;8.40;;
76463;SDS011;65301;46.666;20.110;2024-03-23T11:02:41;10.13;;;8.00;;
76463;SDS011;65301;46.666;20.110;2024-03-23T11:05:48;11.73;;;7.13;;
76463;SDS011;65301;46.666;20.110;2024-03-23T11:08:49;11.27;;;7.90;;
76463;SDS011;65301;46.666;20.110;2024-03-23T11:11:50;9.83;;;7.00;;
76463;SDS011;65301;46.666;20.110;2024-03-23T11:14:56;11.95;;;7.13;;
76463;SDS011;65301;46.666;20.110;2024-03-23T11:18:04;11.30;;;7.93;;
76463;SDS011;65301;46.666;20.110;2024-03-23T11:21:08;12.15;;;7.57;;
76463;SDS011;65301;46.666;20.110;2024-03-23T11:24:13;7.73;;;6.90;;
76463;SDS011;65301;46.666;20.110;2024-03-23T11:27:17;9.85;;;6.65;;
76463;SDS011;65301;46.666;20.110;2024-03-23T11:33:23;10.65;;;6.30;;
76463;SDS011;65301;46.666;20.110;2024-03-23T11:36:24;8.37;;;7.20;;
76463;SDS011;65301;46.666;20.110;2024-03-23T11:39:24;9.95;;;6.90;;
76463;SDS011;65301;46.666;20.110;2024-03-23T11:42:25;13.23;;;7.30;;
76463;SDS011;65301;46.666;20.110;2024-03-23T11:45:26;13.98;;;6.50;;
76463;SDS011;65301;46.666;20.110;2024-03-23T11:48:27;13.47;;;5.80;;
76463;SDS011;65301;46.666;20.110;2024-03-23T11:51:29;8.90;;;5.87;;
76463;SDS011;65301;46.666;20.110;2024-03-23T11:54:35;7.80;;;5.72;;
76463;SDS011;65301;46.666;20.110;2024-03-23T11:57:35;7.37;;;5.77;;
76463;SDS011;65301;46.666;20.110;2024-03-23T12:00:36;9.57;;;5.90;;
76463;SDS011;65301;46.666;20.110;2024-03-23T12:03:37;7.35;;;5.80;;
76463;SDS011;65301;46.666;20.110;2024-03-23T12:06:38;7.83;;;5.83;;
76463;SDS011;65301;46.666;20.110;2024-03-23T12:09:39;8.50;;;5.97;;
76463;SDS011;65301;46.666;20.110;2024-03-23T12:12:41;9.68;;;4.90;;
76463;SDS011;65301;46.666;20.110;2024-03-23T12:15:41;8.90;;;4.63;;
76463;SDS011;65301;46.666;20.110;2024-03-23T12:18:43;7.65;;;4.57;;
76463;SDS011;65301;46.666;20.110;2024-03-23T12:21:44;7.13;;;4.40;;
76463;SDS011;65301;46.666;20.110;2024-03-23T12:24:45;5.53;;;5.00;;
76463;SDS011;65301;46.666;20.110;2024-03-23T12:27:46;5.20;;;4.70;;
76463;SDS011;65301;46.666;20.110;2024-03-23T12:30:47;6.87;;;4.47;;
76463;SDS011;65301;46.666;20.110;2024-03-23T12:33:48;6.30;;;4.60;;
76463;SDS011;65301;46.666;20.110;2024-03-23T12:36:48;6.80;;;4.60;;
76463;SDS011;65301;46.666;20.110;2024-03-23T12:39:49;6.18;;;4.72;;
76463;SDS011;65301;46.666;20.110;2024-03-23T12:42:50;6.60;;;4.70;;
76463;SDS011;65301;46.666;20.110;2024-03-23T12:45:51;7.73;;;4.43;;
76463;SDS011;65301;46.666;20.110;2024-03-23T12:48:51;6.80;;;4.53;;
76463;SDS011;65301;46.666;20.110;2024-03-23T12:51:53;5.73;;;3.77;;
76463;SDS011;65301;46.666;20.110;2024-03-23T12:54:56;5.03;;;4.40;;
76463;SDS011;65301;46.666;20.110;2024-03-23T12:57:57;6.38;;;4.90;;
76463;SDS011;65301;46.666;20.110;2024-03-23T13:00:58;7.43;;;4.87;;
76463;SDS011;65301;46.666;20.110;2024-03-23T13:03:59;5.72;;;4.55;;
76463;SDS011;65301;46.666;20.110;2024-03-23T13:07:01;10.02;;;6.32;;
76463;SDS011;65301;46.666;20.110;2024-03-23T13:10:02;6.00;;;4.18;;
76463;SDS011;65301;46.666;20.110;2024-03-23T13:13:03;4.43;;;3.90;;
76463;SDS011;65301;46.666;20.110;2024-03-23T13:16:04;5.57;;;4.40;;
76463;SDS011;65301;46.666;20.110;2024-03-23T13:19:06;4.57;;;4.18;;
76463;SDS011;65301;46.666;20.110;2024-03-23T13:22:07;7.03;;;4.50;;
76463;SDS011;65301;46.666;20.110;2024-03-23T13:25:08;6.78;;;4.65;;
76463;SDS011;65301;46.666;20.110;2024-03-23T13:28:08;8.98;;;4.25;;
76463;SDS011;65301;46.666;20.110;2024-03-23T13:31:10;4.27;;;3.87;;
76463;SDS011;65301;46.666;20.110;2024-03-23T13:34:10;6.97;;;4.25;;
76463;SDS011;65301;46.666;20.110;2024-03-23T13:37:11;7.30;;;4.07;;
76463;SDS011;65301;46.666;20.110;2024-03-23T13:40:12;5.47;;;3.90;;
76463;SDS011;65301;46.666;20.110;2024-03-23T13:43:13;5.18;;;3.97;;
76463;SDS011;65301;46.666;20.110;2024-03-23T13:46:14;5.40;;;4.13;;
76463;SDS011;65301;46.666;20.110;2024-03-23T13:49:29;9.23;;;3.87;;
76463;SDS011;65301;46.666;20.110;2024-03-23T13:52:31;4.45;;;3.58;;
76463;SDS011;65301;46.666;20.110;2024-03-23T13:55:32;8.93;;;4.35;;
76463;SDS011;65301;46.666;20.110;2024-03-23T13:58:32;4.37;;;3.97;;
76463;SDS011;65301;46.666;20.110;2024-03-23T14:01:33;6.53;;;3.38;;
76463;SDS011;65301;46.666;20.110;2024-03-23T14:04:34;4.13;;;3.43;;
76463;SDS011;65301;46.666;20.110;2024-03-23T14:07:35;5.47;;;3.40;;
76463;SDS011;65301;46.666;20.110;2024-03-23T14:10:39;4.78;;;4.00;;
76463;SDS011;65301;46.666;20.110;2024-03-23T14:13:41;7.97;;;3.80;;
76463;SDS011;65301;46.666;20.110;2024-03-23T14:16:45;3.67;;;3.38;;
76463;SDS011;65301;46.666;20.110;2024-03-23T14:19:46;5.43;;;3.60;;
76463;SDS011;65301;46.666;20.110;2024-03-23T14:22:46;4.30;;;3.43;;
76463;SDS011;65301;46.666;20.110;2024-03-23T14:25:47;4.88;;;3.67;;
76463;SDS011;65301;46.666;20.110;2024-03-23T14:28:49;5.63;;;3.88;;
76463;SDS011;65301;46.666;20.110;2024-03-23T14:31:50;4.63;;;3.20;;
76463;SDS011;65301;46.666;20.110;2024-03-23T14:34:51;3.07;;;2.87;;
76463;SDS011;65301;46.666;20.110;2024-03-23T14:37:54;3.72;;;3.28;;
76463;SDS011;65301;46.666;20.110;2024-03-23T14:41:01;4.07;;;3.03;;
76463;SDS011;65301;46.666;20.110;2024-03-23T14:44:03;3.45;;;2.88;;
76463;SDS011;65301;46.666;20.110;2024-03-23T14:47:04;4.57;;;2.90;;
76463;SDS011;65301;46.666;20.110;2024-03-23T14:50:05;5.25;;;2.60;;
76463;SDS011;65301;46.666;20.110;2024-03-23T14:53:10;5.60;;;2.63;;
76463;SDS011;65301;46.666;20.110;2024-03-23T14:56:11;6.57;;;3.08;;
76463;SDS011;65301;46.666;20.110;2024-03-23T14:59:13;5.07;;;2.92;;
76463;SDS011;65301;46.666;20.110;2024-03-23T15:02:14;3.50;;;3.20;;
76463;SDS011;65301;46.666;20.110;2024-03-23T15:05:15;3.45;;;2.97;;
76463;SDS011;65301;46.666;20.110;2024-03-23T15:08:16;3.33;;;3.03;;
76463;SDS011;65301;46.666;20.110;2024-03-23T15:11:16;4.32;;;2.80;;
76463;SDS011;65301;46.666;20.110;2024-03-23T15:14:20;3.70;;;2.43;;
76463;SDS011;65301;46.666;20.110;2024-03-23T15:17:21;5.37;;;3.20;;
76463;SDS011;65301;46.666;20.110;2024-03-23T15:20:21;3.50;;;2.60;;
76463;SDS011;65301;46.666;20.110;2024-03-23T15:23:22;8.20;;;5.33;;
76463;SDS011;65301;46.666;20.110;2024-03-23T15:26:24;6.28;;;3.90;;
76463;SDS011;65301;46.666;20.110;2024-03-23T15:29:25;6.88;;;3.10;;
76463;SDS011;65301;46.666;20.110;2024-03-23T15:32:26;9.32;;;2.80;;
76463;SDS011;65301;46.666;20.110;2024-03-23T15:35:27;3.23;;;2.93;;
76463;SDS011;65301;46.666;20.110;2024-03-23T15:38:28;4.70;;;3.05;;
76463;SDS011;65301;46.666;20.110;2024-03-23T15:41:31;3.97;;;2.80;;
76463;SDS011;65301;46.666;20.110;2024-03-23T15:44:33;4.13;;;2.70;;
76463;SDS011;65301;46.666;20.110;2024-03-23T15:47:37;3.67;;;3.20;;
76463;SDS011;65301;46.666;20.110;2024-03-23T15:50:38;4.85;;;3.40;;
76463;SDS011;65301;46.666;20.110;2024-03-23T15:53:38;7.43;;;3.80;;
76463;SDS011;65301;46.666;20.110;2024-03-23T15:56:39;5.68;;;3.53;;
76463;SDS011;65301;46.666;20.110;2024-03-23T15:59:40;5.63;;;3.87;;
76463;SDS011;65301;46.666;20.110;2024-03-23T16:02:41;4.82;;;3.22;;
76463;SDS011;65301;46.666;20.110;2024-03-23T16:05:42;5.15;;;3.50;;
76463;SDS011;65301;46.666;20.110;2024-03-23T16:08:50;3.53;;;3.05;;
76463;SDS011;65301;46.666;20.110;2024-03-23T16:11:50;3.13;;;2.83;;
76463;SDS011;65301;46.666;20.110;2024-03-23T16:14:51;5.90;;;3.38;;
76463;SDS011;65301;46.666;20.110;2024-03-23T16:17:52;5.83;;;3.40;;
76463;SDS011;65301;46.666;20.110;2024-03-23T16:20:53;3.20;;;2.90;;
76463;SDS011;65301;46.666;20.110;2024-03-23T16:23:57;4.07;;;3.20;;
76463;SDS011;65301;46.666;20.110;2024-03-23T16:26:58;2.90;;;2.60;;
76463;SDS011;65301;46.666;20.110;2024-03-23T16:29:59;5.30;;;2.50;;
76463;SDS011;65301;46.666;20.110;2024-03-23T16:33:00;6.90;;;3.53;;
76463;SDS011;65301;46.666;20.110;2024-03-23T16:36:04;5.70;;;3.78;;
76463;SDS011;65301;46.666;20.110;2024-03-23T16:39:15;11.60;;;7.03;;
76463;SDS011;65301;46.666;20.110;2024-03-23T16:42:15;10.10;;;6.70;;
76463;SDS011;65301;46.666;20.110;2024-03-23T16:45:16;6.05;;;5.13;;
76463;SDS011;65301;46.666;20.110;2024-03-23T16:48:17;8.10;;;3.93;;
76463;SDS011;65301;46.666;20.110;2024-03-23T16:51:18;6.45;;;4.13;;
76463;SDS011;65301;46.666;20.110;2024-03-23T16:54:18;5.37;;;3.53;;
76463;SDS011;65301;46.666;20.110;2024-03-23T16:57:19;4.40;;;3.03;;
76463;SDS011;65301;46.666;20.110;2024-03-23T17:00:20;4.27;;;3.27;;
76463;SDS011;65301;46.666;20.110;2024-03-23T17:03:21;7.80;;;3.35;;
76463;SDS011;65301;46.666;20.110;2024-03-23T17:06:22;4.63;;;3.85;;
76463;SDS011;65301;46.666;20.110;2024-03-23T17:09:24;8.60;;;3.70;;
76463;SDS011;65301;46.666;20.110;2024-03-23T17:12:26;5.78;;;4.18;;
76463;SDS011;65301;46.666;20.110;2024-03-23T17:15:27;10.02;;;6.78;;
76463;SDS011;65301;46.666;20.110;2024-03-23T17:18:28;13.53;;;10.20;;
76463;SDS011;65301;46.666;20.110;2024-03-23T17:21:29;14.03;;;8.57;;
76463;SDS011;65301;46.666;20.110;2024-03-23T17:24:30;9.30;;;6.55;;
76463;SDS011;65301;46.666;20.110;2024-03-23T17:27:32;8.33;;;4.47;;
76463;SDS011;65301;46.666;20.110;2024-03-23T17:30:33;9.87;;;6.40;;
76463;SDS011;65301;46.666;20.110;2024-03-23T17:33:34;14.70;;;9.77;;
76463;SDS011;65301;46.666;20.110;2024-03-23T17:36:34;16.77;;;10.47;;
76463;SDS011;65301;46.666;20.110;2024-03-23T17:39:36;13.73;;;8.07;;
76463;SDS011;65301;46.666;20.110;2024-03-23T17:42:38;17.02;;;11.23;;
76463;SDS011;65301;46.666;20.110;2024-03-23T17:45:39;17.30;;;10.23;;
76463;SDS011;65301;46.666;20.110;2024-03-23T17:48:40;19.38;;;13.07;;
76463;SDS011;65301;46.666;20.110;2024-03-23T17:51:42;14.80;;;9.63;;
76463;SDS011;65301;46.666;20.110;2024-03-23T17:54:44;11.83;;;7.80;;
76463;SDS011;65301;46.666;20.110;2024-03-23T17:57:44;7.70;;;5.07;;
76463;SDS011;65301;46.666;20.110;2024-03-23T18:00:45;7.47;;;6.17;;
76463;SDS011;65301;46.666;20.110;2024-03-23T18:03:50;9.73;;;5.33;;
76463;SDS011;65301;46.666;20.110;2024-03-23T18:06:52;9.35;;;5.60;;
76463;SDS011;65301;46.666;20.110;2024-03-23T18:09:54;21.27;;;8.13;;
76463;SDS011;65301;46.666;20.110;2024-03-23T18:12:54;10.10;;;5.60;;
76463;SDS011;65301;46.666;20.110;2024-03-23T18:15:56;16.27;;;8.77;;
76463;SDS011;65301;46.666;20.110;2024-03-23T18:18:57;12.30;;;6.28;;
76463;SDS011;65301;46.666;20.110;2024-03-23T18:21:57;10.17;;;6.03;;
76463;SDS011;65301;46.666;20.110;2024-03-23T18:24:58;11.75;;;7.43;;
76463;SDS011;65301;46.666;20.110;2024-03-23T18:28:00;7.50;;;5.63;;
76463;SDS011;65301;46.666;20.110;2024-03-23T18:31:01;8.83;;;5.73;;
76463;SDS011;65301;46.666;20.110;2024-03-23T18:34:02;12.55;;;7.05;;